createdAt,value
2023-03-11T00:00:33.242Z,7.18
2023-03-11T00:03:03.456Z,7.23
2023-03-11T00:05:33.932Z,7.19
2023-03-11T00:08:02.497Z,7.18
2023-03-11T00:10:33.265Z,7.19
2023-03-11T00:13:02.076Z,7.17
2023-03-11T00:15:32.416Z,7.16
2023-03-11T00:18:00.798Z,7.10
2023-03-11T00:20:30.764Z,7.00
2023-03-11T00:22:59.579Z,6.95
2023-03-11T00:25:30.504Z,6.90
2023-03-11T00:27:58.817Z,6.89
2023-03-11T00:30:27.955Z,6.94
2023-03-11T00:32:59.522Z,6.95
2023-03-11T00:35:29.582Z,6.96
2023-03-11T00:37:59.588Z,6.96
2023-03-11T00:40:31.024Z,6.97
2023-03-11T00:42:59.756Z,6.99
2023-03-11T00:45:29.120Z,7.04
2023-03-11T00:47:59.193Z,7.14
2023-03-11T00:50:29.936Z,7.18
2023-03-11T00:52:58.886Z,7.25
2023-03-11T00:55:29.140Z,7.31
2023-03-11T00:58:00.267Z,7.29
2023-03-11T01:00:32.761Z,7.31
2023-03-11T01:03:02.212Z,7.32
2023-03-11T01:05:32.407Z,7.29
2023-03-11T01:08:01.259Z,7.33
2023-03-11T01:10:30.677Z,7.30
2023-03-11T01:12:58.948Z,7.30
2023-03-11T01:15:31.154Z,7.32
2023-03-11T01:18:02.133Z,7.29
2023-03-11T01:20:30.343Z,7.24
2023-03-11T01:22:58.490Z,7.29
2023-03-11T01:25:26.741Z,7.30
2023-03-11T01:27:54.934Z,7.28
2023-03-11T01:30:25.780Z,7.26
2023-03-11T01:32:55.225Z,7.27
2023-03-11T01:35:27.036Z,7.27
2023-03-11T01:37:55.364Z,7.25
2023-03-11T01:40:29.941Z,7.17
2023-03-11T01:43:00.005Z,7.05
2023-03-11T01:45:41.512Z,6.97
2023-03-11T01:48:11.917Z,6.93
2023-03-11T01:50:45.231Z,6.87
2023-03-11T01:53:15.089Z,6.84
2023-03-11T01:55:43.934Z,6.88
2023-03-11T01:58:17.134Z,6.87
2023-03-11T02:00:45.784Z,6.95
2023-03-11T02:03:19.776Z,6.94
2023-03-11T02:05:50.729Z,7.00
2023-03-11T02:08:18.792Z,7.03
2023-03-11T02:10:47.911Z,7.04
2023-03-11T02:13:17.170Z,7.05
2023-03-11T02:15:46.148Z,7.09
2023-03-11T02:18:15.975Z,7.07
2023-03-11T02:20:49.338Z,7.08
2023-03-11T02:23:22.012Z,7.09
2023-03-11T02:25:55.699Z,7.16
2023-03-11T02:28:26.504Z,7.19
2023-03-11T02:30:54.750Z,7.18
2023-03-11T02:33:24.511Z,7.23
2023-03-11T02:35:52.892Z,7.26
2023-03-11T02:38:21.072Z,7.27
2023-03-11T02:40:54.006Z,7.22
2023-03-11T02:43:34.638Z,7.20
2023-03-11T02:46:03.560Z,7.24
2023-03-11T02:48:33.234Z,7.22
2023-03-11T02:51:01.830Z,7.24
2023-03-11T02:53:34.552Z,7.20
2023-03-11T02:56:02.654Z,7.22
2023-03-11T02:58:32.511Z,7.15
2023-03-11T03:01:00.559Z,7.12
2023-03-11T03:03:28.728Z,7.12
2023-03-11T03:05:57.012Z,7.12
2023-03-11T03:08:25.133Z,7.11
2023-03-11T03:10:53.557Z,7.07
2023-03-11T03:13:21.740Z,7.08
2023-03-11T03:15:51.239Z,7.07
2023-03-11T03:18:19.300Z,7.03
2023-03-11T03:20:47.474Z,7.04
2023-03-11T03:23:17.607Z,7.04
2023-03-11T03:25:46.148Z,6.98
2023-03-11T03:28:15.369Z,6.94
2023-03-11T03:30:46.758Z,6.98
2023-03-11T03:33:16.992Z,6.95
2023-03-11T03:35:46.359Z,7.01
2023-03-11T03:38:19.890Z,7.03
2023-03-11T03:40:50.084Z,6.97
2023-03-11T03:43:20.949Z,6.94
2023-03-11T03:45:57.134Z,6.90
2023-03-11T03:48:28.453Z,6.90
2023-03-11T03:50:57.008Z,6.89
2023-03-11T03:53:25.324Z,6.87
2023-03-11T03:55:54.684Z,6.80
2023-03-11T03:58:22.869Z,6.73
2023-03-11T04:00:51.167Z,6.66
2023-03-11T04:03:19.427Z,6.58
2023-03-11T04:05:55.364Z,6.50
2023-03-11T04:08:23.508Z,6.45
2023-03-11T04:10:58.145Z,6.46
2023-03-11T04:13:27.392Z,6.44
2023-03-11T04:15:55.922Z,6.49
2023-03-11T04:18:24.053Z,6.50
2023-03-11T04:20:52.389Z,6.44
2023-03-11T04:23:22.593Z,6.44
2023-03-11T04:25:50.776Z,6.41
2023-03-11T04:28:20.165Z,6.40
2023-03-11T04:30:48.405Z,6.35
2023-03-11T04:33:16.610Z,6.30
2023-03-11T04:35:45.068Z,6.28
2023-03-11T04:38:13.245Z,6.25
2023-03-11T04:40:42.789Z,6.16
2023-03-11T04:43:11.176Z,6.08
2023-03-11T04:45:40.150Z,6.05
2023-03-11T04:48:09.250Z,6.02
2023-03-11T04:50:39.039Z,5.97
2023-03-11T04:53:07.159Z,5.94
2023-03-11T04:55:35.571Z,5.89
2023-03-11T04:58:05.206Z,5.83
2023-03-11T05:00:34.667Z,5.74
2023-03-11T05:03:10.191Z,5.65
2023-03-11T05:05:38.520Z,5.59
2023-03-11T05:08:07.275Z,5.54
2023-03-11T05:10:36.793Z,5.49
2023-03-11T05:13:08.991Z,5.40
2023-03-11T05:15:39.110Z,5.35
2023-03-11T05:18:08.186Z,5.27
2023-03-11T05:20:38.459Z,5.22
2023-03-11T05:23:07.151Z,5.17
2023-03-11T05:25:37.139Z,5.11
2023-03-11T05:28:06.292Z,5.04
2023-03-11T05:30:39.630Z,4.96
2023-03-11T05:33:07.879Z,4.94
2023-03-11T05:35:36.510Z,4.90
2023-03-11T05:38:05.011Z,4.88
2023-03-11T05:40:33.969Z,4.82
2023-03-11T05:43:02.058Z,4.78
2023-03-11T05:45:33.036Z,4.73
2023-03-11T05:48:04.347Z,4.69
2023-03-11T05:50:33.143Z,4.64
2023-03-11T05:53:01.977Z,4.57
2023-03-11T05:55:31.857Z,4.54
2023-03-11T05:58:01.100Z,4.56
2023-03-11T06:00:29.507Z,4.58
2023-03-11T06:03:00.021Z,4.58
2023-03-11T06:05:29.763Z,4.54
2023-03-11T06:07:58.771Z,4.51
2023-03-11T06:10:26.878Z,4.47
2023-03-11T06:12:55.070Z,4.46
2023-03-11T06:15:27.037Z,4.46
2023-03-11T06:17:55.596Z,4.45
2023-03-11T06:20:23.847Z,4.44
2023-03-11T06:22:53.997Z,4.41
2023-03-11T06:25:24.386Z,4.42
2023-03-11T06:27:54.414Z,4.39
2023-03-11T06:30:25.973Z,4.39
2023-03-11T06:33:01.024Z,4.42
2023-03-11T06:35:29.323Z,4.39
2023-03-11T06:37:58.740Z,4.42
2023-03-11T06:40:26.771Z,4.45
2023-03-11T06:42:55.014Z,4.51
2023-03-11T06:45:25.478Z,4.57
2023-03-11T06:47:54.186Z,4.64
2023-03-11T06:50:24.072Z,4.74
2023-03-11T06:52:53.931Z,4.83
2023-03-11T06:55:23.341Z,4.92
2023-03-11T06:57:51.542Z,5.00
2023-03-11T07:00:20.228Z,5.06
2023-03-11T07:02:53.712Z,5.16
2023-03-11T07:05:22.400Z,5.17
2023-03-11T07:07:56.380Z,5.19
2023-03-11T07:10:27.465Z,5.23
2023-03-11T07:12:55.605Z,5.32
2023-03-11T07:15:24.680Z,5.45
2023-03-11T07:17:52.893Z,5.54
2023-03-11T07:20:21.145Z,5.68
2023-03-11T07:22:49.181Z,5.85
2023-03-11T07:25:17.458Z,5.98
2023-03-11T07:27:46.842Z,6.13
2023-03-11T07:30:15.858Z,6.24
2023-03-11T07:32:43.918Z,6.27
2023-03-11T07:35:11.967Z,6.33
2023-03-11T07:37:39.986Z,6.39
2023-03-11T07:40:09.615Z,6.44
2023-03-11T07:42:37.669Z,6.60
2023-03-11T07:45:09.130Z,6.59
2023-03-11T07:47:37.170Z,6.71
2023-03-11T07:50:05.613Z,6.85
2023-03-11T07:52:33.959Z,6.95
2023-03-11T07:55:02.268Z,7.00
2023-03-11T07:57:30.284Z,7.07
2023-03-11T07:59:58.280Z,7.17
2023-03-11T08:02:28.249Z,7.28
2023-03-11T08:04:57.520Z,7.29
2023-03-11T08:07:25.596Z,7.38
2023-03-11T08:09:53.636Z,7.46
2023-03-11T08:12:21.714Z,7.53
2023-03-11T08:14:49.736Z,7.60
2023-03-11T08:17:17.784Z,7.70
2023-03-11T08:19:47.257Z,7.76
2023-03-11T08:22:15.300Z,7.79
2023-03-11T08:24:43.403Z,7.87
2023-03-11T08:27:12.390Z,7.97
2023-03-11T08:29:40.401Z,7.94
2023-03-11T08:32:08.601Z,8.06
2023-03-11T08:34:36.707Z,8.21
2023-03-11T08:37:06.916Z,8.39
2023-03-11T08:39:34.961Z,8.57
2023-03-11T08:42:04.043Z,8.62
2023-03-11T08:44:32.108Z,8.64
2023-03-11T08:47:00.144Z,8.83
2023-03-11T08:49:28.289Z,8.92
2023-03-11T08:51:56.435Z,9.01
2023-03-11T08:54:25.988Z,9.21
2023-03-11T08:56:54.015Z,9.37
2023-03-11T08:59:22.056Z,9.48
2023-03-11T09:01:50.088Z,9.63
2023-03-11T09:04:18.104Z,9.71
2023-03-11T09:06:48.786Z,9.82
2023-03-11T09:09:19.521Z,10.15
2023-03-11T09:11:49.479Z,10.37
2023-03-11T09:14:17.700Z,10.58
2023-03-11T09:16:45.740Z,10.77
2023-03-11T09:19:13.773Z,10.99
2023-03-11T09:21:41.801Z,11.13
2023-03-11T09:24:09.929Z,11.37
2023-03-11T09:26:38.005Z,11.54
2023-03-11T09:29:07.398Z,11.77
2023-03-11T09:31:35.484Z,12.04
2023-03-11T09:34:03.658Z,12.32
2023-03-11T09:36:31.935Z,12.61
2023-03-11T09:39:00.053Z,13.04
2023-03-11T09:41:40.000Z,13.38
2023-03-11T09:44:20.099Z,13.85
2023-03-11T09:47:23.791Z,14.07
2023-03-11T09:50:11.962Z,14.18
2023-03-11T09:52:45.900Z,14.40
2023-03-11T09:55:28.131Z,14.72
2023-03-11T09:57:57.942Z,14.94
2023-03-11T10:00:27.491Z,15.07
2023-03-11T10:02:56.529Z,15.13
2023-03-11T10:05:28.383Z,15.37
2023-03-11T10:08:04.578Z,15.52
2023-03-11T10:10:40.186Z,15.97
2023-03-11T10:13:14.399Z,16.57
2023-03-11T10:15:52.412Z,17.03
2023-03-11T10:18:39.011Z,16.86
2023-03-11T10:21:14.856Z,16.89
2023-03-11T10:23:57.828Z,17.08
2023-03-11T10:26:33.480Z,16.86
2023-03-11T10:29:08.840Z,17.11
2023-03-11T10:31:43.385Z,17.43
2023-03-11T10:34:16.665Z,17.48
2023-03-11T10:36:57.085Z,17.55
2023-03-11T10:39:26.286Z,17.73
2023-03-11T10:41:56.699Z,17.76
2023-03-11T10:44:29.346Z,17.63
2023-03-11T10:46:58.738Z,17.49
2023-03-11T10:49:27.296Z,17.55
2023-03-11T10:51:57.215Z,17.64
2023-03-11T10:54:28.848Z,17.79
2023-03-11T10:56:59.093Z,18.10
2023-03-11T10:59:31.344Z,18.02
2023-03-11T11:02:02.601Z,18.05
2023-03-11T11:04:36.220Z,18.10
2023-03-11T11:07:30.185Z,18.14
2023-03-11T11:10:17.284Z,18.08
2023-03-11T11:12:59.562Z,18.21
2023-03-11T11:15:30.545Z,18.39
2023-03-11T11:18:02.055Z,18.38
2023-03-11T11:20:31.415Z,18.29
2023-03-11T11:23:01.415Z,18.49
2023-03-11T11:25:33.686Z,18.35
2023-03-11T11:28:05.286Z,18.29
2023-03-11T11:30:33.416Z,18.17
2023-03-11T11:33:25.682Z,17.73
2023-03-11T11:35:56.223Z,17.48
2023-03-11T11:38:26.098Z,17.11
2023-03-11T11:40:56.365Z,17.13
2023-03-11T11:43:36.182Z,17.60
2023-03-11T11:46:08.386Z,17.38
2023-03-11T11:48:46.098Z,17.78
2023-03-11T11:51:21.003Z,17.91
2023-03-11T11:53:53.571Z,17.50
2023-03-11T11:56:25.615Z,17.90
2023-03-11T11:58:54.737Z,17.88
2023-03-11T12:01:35.250Z,18.24
2023-03-11T12:04:28.308Z,18.50
2023-03-11T12:07:14.781Z,19.07
2023-03-11T12:09:51.097Z,18.89
2023-03-11T12:12:28.154Z,18.65
2023-03-11T12:15:03.621Z,18.66
2023-03-11T12:17:33.308Z,18.78
2023-03-11T12:20:08.691Z,18.97
2023-03-11T12:22:55.310Z,18.87
2023-03-11T12:25:29.982Z,18.44
2023-03-11T12:28:04.433Z,18.51
2023-03-11T12:30:37.795Z,18.34
2023-03-11T12:33:15.624Z,18.39
2023-03-11T12:35:50.844Z,18.43
2023-03-11T12:38:21.228Z,18.27
2023-03-11T12:41:00.317Z,18.43
2023-03-11T12:44:11.511Z,18.38
2023-03-11T12:47:02.989Z,18.28
2023-03-11T12:49:31.715Z,18.47
2023-03-11T12:52:17.293Z,18.42
2023-03-11T12:54:46.556Z,17.65
2023-03-11T12:57:35.755Z,17.70
2023-03-11T13:00:19.345Z,17.49
2023-03-11T13:03:11.357Z,16.89
2023-03-11T13:05:58.461Z,16.25
2023-03-11T13:08:30.391Z,16.24
2023-03-11T13:10:59.324Z,15.90
2023-03-11T13:13:39.316Z,15.77
2023-03-11T13:16:39.806Z,15.37
2023-03-11T13:19:34.806Z,15.17
2023-03-11T13:22:03.942Z,15.53
2023-03-11T13:24:52.510Z,16.12
2023-03-11T13:27:43.064Z,16.39
2023-03-11T13:30:18.765Z,16.34
2023-03-11T13:33:15.277Z,16.91
2023-03-11T13:35:57.825Z,17.11
2023-03-11T13:38:49.303Z,17.10
2023-03-11T13:41:23.822Z,17.23
2023-03-11T13:43:52.476Z,17.13
2023-03-11T13:46:28.919Z,17.06
2023-03-11T13:49:04.007Z,17.03
2023-03-11T13:51:39.224Z,16.89
2023-03-11T13:54:23.965Z,17.00
2023-03-11T13:56:58.030Z,16.71
2023-03-11T13:59:28.652Z,16.32
2023-03-11T14:02:00.305Z,16.16
2023-03-11T14:04:30.205Z,16.04
2023-03-11T14:06:58.660Z,15.82
2023-03-11T14:09:29.645Z,15.93
2023-03-11T14:12:08.110Z,16.46
2023-03-11T14:14:47.812Z,16.86
2023-03-11T14:17:18.019Z,17.09
2023-03-11T14:20:04.675Z,17.36
2023-03-11T14:22:32.928Z,17.11
2023-03-11T14:25:10.986Z,16.75
2023-03-11T14:27:40.750Z,16.07
2023-03-11T14:30:19.255Z,15.36
2023-03-11T14:32:58.097Z,14.78
2023-03-11T14:35:26.696Z,14.36
2023-03-11T14:37:55.011Z,14.12
2023-03-11T14:40:30.519Z,13.83
2023-03-11T14:43:02.887Z,13.50
2023-03-11T14:45:33.668Z,13.27
2023-03-11T14:48:05.979Z,13.07
2023-03-11T14:50:36.252Z,12.89
2023-03-11T14:53:09.955Z,12.82
2023-03-11T14:55:41.172Z,12.82
2023-03-11T14:58:16.328Z,12.92
2023-03-11T15:00:50.061Z,13.02
2023-03-11T15:03:24.480Z,13.08
2023-03-11T15:05:55.653Z,13.45
2023-03-11T15:08:27.050Z,13.75
2023-03-11T15:11:15.457Z,13.68
2023-03-11T15:13:47.405Z,13.50
2023-03-11T15:16:34.018Z,13.59
2023-03-11T15:19:03.544Z,14.14
2023-03-11T15:21:31.663Z,14.58
2023-03-11T15:24:05.258Z,14.74
2023-03-11T15:26:35.862Z,14.80
2023-03-11T15:29:14.750Z,14.88
2023-03-11T15:31:47.547Z,14.84
2023-03-11T15:34:28.345Z,14.59
2023-03-11T15:36:59.885Z,14.43
2023-03-11T15:39:41.125Z,14.01
2023-03-11T15:42:15.548Z,13.61
2023-03-11T15:44:53.647Z,13.36
2023-03-11T15:47:23.537Z,13.20
2023-03-11T15:49:51.971Z,13.10
2023-03-11T15:52:20.517Z,13.04
2023-03-11T15:54:55.410Z,12.95
2023-03-11T15:57:27.292Z,12.75
2023-03-11T15:59:58.255Z,12.52
2023-03-11T16:02:28.242Z,12.35
2023-03-11T16:04:57.077Z,12.20
2023-03-11T16:07:38.776Z,12.08
2023-03-11T16:10:07.870Z,11.98
2023-03-11T16:16:28.251Z,11.01
2023-03-11T16:19:01.076Z,10.73
2023-03-11T16:25:46.591Z,10.31
2023-03-11T16:28:20.169Z,10.33
2023-03-11T16:30:53.563Z,10.36
2023-03-11T16:33:37.074Z,10.42
2023-03-11T16:36:38.420Z,10.43
2023-03-11T16:40:00.317Z,10.42
2023-03-11T16:42:59.146Z,10.44
2023-03-11T16:49:16.006Z,10.37
2023-03-11T16:51:54.646Z,10.28
2023-03-11T16:58:07.630Z,10.15
2023-03-11T17:01:35.739Z,10.11
2023-03-11T17:04:48.656Z,9.95
2023-03-11T17:07:16.962Z,9.94
2023-03-11T17:09:44.946Z,9.92
2023-03-11T17:12:15.718Z,9.86
2023-03-11T17:14:43.808Z,9.72
2023-03-11T17:17:11.897Z,9.67
2023-03-11T17:19:41.344Z,9.59
2023-03-11T17:22:09.400Z,9.47
2023-03-11T17:24:37.778Z,9.40
2023-03-11T17:27:05.992Z,9.30
2023-03-11T17:29:34.852Z,9.16
2023-03-11T17:32:03.518Z,9.22
2023-03-11T17:34:31.629Z,9.15
2023-03-11T17:37:01.046Z,9.08
2023-03-11T17:39:29.484Z,9.02
2023-03-11T17:41:57.639Z,9.09
2023-03-11T17:44:25.737Z,9.10
2023-03-11T17:46:53.821Z,9.11
2023-03-11T17:49:24.549Z,9.08
2023-03-11T17:51:52.770Z,9.02
2023-03-11T17:54:22.237Z,8.97
2023-03-11T17:56:50.333Z,8.92
2023-03-11T17:59:18.358Z,8.92
2023-03-11T18:01:47.645Z,8.90
2023-03-11T18:04:15.864Z,8.88
2023-03-11T18:06:44.349Z,8.88
2023-03-11T18:09:12.499Z,8.76
2023-03-11T18:11:41.983Z,8.73
2023-03-11T18:14:10.163Z,8.70
2023-03-11T18:16:38.576Z,8.63
2023-03-11T18:19:06.789Z,8.68
2023-03-11T18:21:34.973Z,8.56
2023-03-11T18:24:03.192Z,8.57
2023-03-11T18:26:31.882Z,8.55
2023-03-11T18:29:02.275Z,8.47
2023-03-11T18:31:32.079Z,8.42
2023-03-11T18:34:02.382Z,8.39
2023-03-11T18:36:32.378Z,8.43
2023-03-11T18:39:04.772Z,8.45
2023-03-11T18:41:35.493Z,8.45
2023-03-11T18:44:08.475Z,8.49
2023-03-11T18:46:36.598Z,8.51
2023-03-11T18:49:05.590Z,8.49
2023-03-11T18:51:34.297Z,8.46
2023-03-11T18:54:02.815Z,8.45
2023-03-11T18:56:32.126Z,8.43
2023-03-11T18:59:00.380Z,8.45
2023-03-11T19:01:30.003Z,8.41
2023-03-11T19:03:59.952Z,8.36
2023-03-11T19:06:29.178Z,8.33
2023-03-11T19:08:57.840Z,8.31
2023-03-11T19:11:26.967Z,8.28
2023-03-11T19:13:55.133Z,8.26
2023-03-11T19:16:26.078Z,8.24
2023-03-11T19:18:56.479Z,8.24
2023-03-11T19:21:25.888Z,8.22
2023-03-11T19:23:55.326Z,8.23
2023-03-11T19:26:30.861Z,8.18
2023-03-11T19:29:10.297Z,8.17
2023-03-11T19:31:38.489Z,8.15
2023-03-11T19:34:08.207Z,8.15
2023-03-11T19:36:36.269Z,8.13
2023-03-11T19:39:04.648Z,8.12
2023-03-11T19:41:32.698Z,8.12
2023-03-11T19:44:00.897Z,8.12
2023-03-11T19:46:29.786Z,8.09
2023-03-11T19:48:58.895Z,8.06
2023-03-11T19:51:32.922Z,8.01
2023-03-11T19:54:07.289Z,8.00
2023-03-11T19:56:35.506Z,7.99
2023-03-11T19:59:07.267Z,7.96
2023-03-11T20:01:35.425Z,7.97
2023-03-11T20:04:03.624Z,7.98
2023-03-11T20:06:33.147Z,7.93
2023-03-11T20:09:01.258Z,7.93
2023-03-11T20:11:29.453Z,7.87
2023-03-11T20:13:57.493Z,7.83
2023-03-11T20:16:25.834Z,7.84
2023-03-11T20:18:53.898Z,7.84
2023-03-11T20:21:22.356Z,7.84
2023-03-11T20:23:54.359Z,7.84
2023-03-11T20:26:22.632Z,7.83
2023-03-11T20:28:50.890Z,7.83
2023-03-11T20:31:21.004Z,7.83
2023-03-11T20:33:50.346Z,7.84
2023-03-11T20:36:21.138Z,7.82
2023-03-11T20:38:51.103Z,7.82
2023-03-11T20:41:19.720Z,7.82
2023-03-11T20:43:47.848Z,7.78
2023-03-11T20:46:16.109Z,7.76
2023-03-11T20:48:44.295Z,7.77
2023-03-11T20:51:15.766Z,7.81
2023-03-11T20:53:43.998Z,7.82
2023-03-11T20:56:16.173Z,7.79
2023-03-11T20:58:45.736Z,7.82
2023-03-11T21:01:15.989Z,7.82
2023-03-11T21:03:46.379Z,7.79
2023-03-11T21:06:18.325Z,7.75
2023-03-11T21:08:46.985Z,7.77
2023-03-11T21:11:17.457Z,7.71
2023-03-11T21:13:45.759Z,7.72
2023-03-11T21:16:14.713Z,7.72
2023-03-11T21:18:44.351Z,7.71
2023-03-11T21:21:13.224Z,7.69
2023-03-11T21:23:42.378Z,7.68
2023-03-11T21:26:12.141Z,7.70
2023-03-11T21:28:46.831Z,7.68
2023-03-11T21:31:16.976Z,7.67
2023-03-11T21:33:45.493Z,7.65
2023-03-11T21:36:15.085Z,7.64
2023-03-11T21:38:43.297Z,7.62
2023-03-11T21:41:13.348Z,7.61
2023-03-11T21:43:43.911Z,7.58
2023-03-11T21:46:14.051Z,7.54
2023-03-11T21:48:42.256Z,7.46
2023-03-11T21:51:10.461Z,7.42
2023-03-11T21:53:38.854Z,7.34
2023-03-11T21:56:07.537Z,7.32
2023-03-11T21:58:35.753Z,7.32
2023-03-11T22:01:05.531Z,7.29
2023-03-11T22:03:35.874Z,7.28
2023-03-11T22:06:07.355Z,7.22
2023-03-11T22:08:36.039Z,7.23
2023-03-11T22:11:04.812Z,7.25
2023-03-11T22:13:32.880Z,7.20
2023-03-11T22:16:07.389Z,7.20
2023-03-11T22:18:35.702Z,7.25
2023-03-11T22:21:03.855Z,7.25
2023-03-11T22:23:32.293Z,7.28
2023-03-11T22:26:09.688Z,7.24
2023-03-11T22:28:37.898Z,7.30
2023-03-11T22:31:12.119Z,7.28
2023-03-11T22:33:40.485Z,7.30
2023-03-11T22:36:09.618Z,7.31
2023-03-11T22:38:40.033Z,7.31
2023-03-11T22:41:10.188Z,7.28
2023-03-11T22:43:38.773Z,7.29
2023-03-11T22:46:07.604Z,7.25
2023-03-11T22:48:37.577Z,7.24
2023-03-11T22:51:07.085Z,7.26
2023-03-11T22:53:35.195Z,7.32
2023-03-11T22:56:08.361Z,7.38
2023-03-11T22:58:36.811Z,7.44
2023-03-11T23:01:05.829Z,7.46
2023-03-11T23:03:34.958Z,7.53
2023-03-11T23:06:06.749Z,7.50
2023-03-11T23:08:35.938Z,7.54
2023-03-11T23:11:05.262Z,7.59
2023-03-11T23:13:35.841Z,7.60
2023-03-11T23:16:07.261Z,7.56
2023-03-11T23:18:35.828Z,7.56
2023-03-11T23:21:05.851Z,7.52
2023-03-11T23:23:33.960Z,7.59
2023-03-11T23:26:02.047Z,7.59
2023-03-11T23:28:30.097Z,7.64
2023-03-11T23:30:58.244Z,7.64
2023-03-11T23:33:26.417Z,7.63
2023-03-11T23:35:54.518Z,7.71
2023-03-11T23:38:23.989Z,7.70
2023-03-11T23:40:52.262Z,7.74
2023-03-11T23:43:20.508Z,7.76
2023-03-11T23:45:48.649Z,7.76
2023-03-11T23:48:16.756Z,7.71
2023-03-11T23:50:46.708Z,7.69
2023-03-11T23:53:15.134Z,7.68
2023-03-11T23:55:44.808Z,7.68
2023-03-11T23:58:13.085Z,7.65
